createdAt,value
2017-05-10T00:00:42.167Z,90.90
2017-05-10T00:03:09.467Z,90.70
2017-05-10T00:05:36.699Z,90.70
2017-05-10T00:08:03.948Z,90.90
2017-05-10T00:10:31.127Z,91.00
2017-05-10T00:12:58.348Z,90.80
2017-05-10T00:15:25.536Z,90.70
2017-05-10T00:17:52.712Z,90.60
2017-05-10T00:20:19.864Z,90.60
2017-05-10T00:22:47.101Z,90.90
2017-05-10T00:25:15.079Z,91.20
2017-05-10T00:27:42.639Z,90.80
2017-05-10T00:30:09.885Z,90.70
2017-05-10T00:32:37.101Z,90.70
2017-05-10T00:35:04.255Z,90.60
2017-05-10T00:37:31.548Z,90.40
2017-05-10T00:39:59.103Z,91.20
2017-05-10T00:42:26.276Z,91.00
2017-05-10T00:44:53.495Z,91.00
2017-05-10T00:47:20.771Z,90.30
2017-05-10T00:49:48.045Z,90.40
2017-05-10T00:52:15.275Z,90.80
2017-05-10T00:54:42.440Z,90.40
2017-05-10T00:57:09.702Z,91.20
2017-05-10T00:59:36.987Z,91.10
2017-05-10T01:02:04.900Z,91.00
2017-05-10T01:04:32.164Z,91.00
2017-05-10T01:06:59.335Z,90.60
2017-05-10T01:09:26.471Z,90.80
2017-05-10T01:11:53.757Z,90.50
2017-05-10T01:14:21.765Z,90.80
2017-05-10T01:16:48.945Z,90.60
2017-05-10T01:19:16.173Z,90.20
2017-05-10T01:21:43.505Z,88.80
2017-05-10T01:24:10.763Z,88.80
2017-05-10T01:26:37.971Z,90.70
2017-05-10T01:29:05.189Z,90.20
2017-05-10T01:31:32.589Z,90.20
2017-05-10T01:33:59.794Z,90.70
2017-05-10T01:36:27.039Z,90.50
2017-05-10T01:38:54.404Z,90.70
2017-05-10T01:41:21.652Z,90.60
2017-05-10T01:43:48.857Z,90.20
2017-05-10T01:46:16.319Z,90.50
2017-05-10T01:48:43.803Z,90.20
2017-05-10T01:51:11.084Z,90.40
2017-05-10T01:53:38.276Z,89.70
2017-05-10T01:56:05.644Z,90.10
2017-05-10T01:58:33.099Z,90.40
2017-05-10T02:01:00.298Z,90.80
2017-05-10T02:03:27.522Z,90.70
2017-05-10T02:05:54.884Z,90.70
2017-05-10T02:08:22.100Z,90.20
2017-05-10T02:10:49.380Z,90.50
2017-05-10T02:13:16.589Z,90.30
2017-05-10T02:15:44.721Z,90.50
2017-05-10T02:18:11.979Z,90.90
2017-05-10T02:20:39.176Z,90.90
2017-05-10T02:23:06.520Z,90.70
2017-05-10T02:25:33.884Z,91.40
2017-05-10T02:28:01.265Z,90.80
2017-05-10T02:30:28.645Z,90.60
2017-05-10T02:32:55.852Z,90.70
2017-05-10T02:35:23.034Z,91.00
2017-05-10T02:37:51.304Z,91.00
2017-05-10T02:40:18.670Z,91.40
2017-05-10T02:42:46.707Z,91.50
2017-05-10T02:45:14.033Z,91.40
2017-05-10T02:47:42.088Z,91.20
2017-05-10T02:50:09.972Z,91.40
2017-05-10T02:52:37.194Z,91.60
2017-05-10T02:55:05.243Z,91.20
2017-05-10T02:57:32.488Z,91.10
2017-05-10T02:59:59.808Z,91.50
2017-05-10T03:02:27.056Z,92.00
2017-05-10T03:04:54.484Z,92.30
2017-05-10T03:07:22.516Z,92.70
2017-05-10T03:09:49.770Z,92.00
2017-05-10T03:12:16.999Z,91.40
2017-05-10T03:14:44.525Z,91.40
2017-05-10T03:17:11.731Z,92.00
2017-05-10T03:19:38.876Z,92.10
2017-05-10T03:22:06.059Z,92.20
2017-05-10T03:24:33.265Z,92.20
2017-05-10T03:27:00.481Z,92.40
2017-05-10T03:29:28.424Z,92.70
2017-05-10T03:31:55.620Z,92.70
2017-05-10T03:34:22.936Z,92.90
2017-05-10T03:36:50.881Z,92.30
2017-05-10T03:39:18.094Z,92.00
2017-05-10T03:41:45.326Z,92.20
2017-05-10T03:44:12.467Z,92.80
2017-05-10T03:46:40.426Z,92.70
2017-05-10T03:49:08.348Z,92.50
2017-05-10T03:51:35.523Z,92.90
2017-05-10T03:54:02.808Z,92.80
2017-05-10T03:56:29.957Z,92.70
2017-05-10T03:58:57.136Z,92.10
2017-05-10T04:01:24.325Z,92.20
2017-05-10T04:03:51.469Z,92.10
2017-05-10T04:06:18.677Z,92.00
2017-05-10T04:08:45.862Z,92.40
2017-05-10T04:11:13.040Z,92.90
2017-05-10T04:13:40.976Z,92.20
2017-05-10T04:16:08.162Z,92.10
2017-05-10T04:18:35.360Z,92.10
2017-05-10T04:21:02.721Z,91.90
2017-05-10T04:23:29.904Z,91.60
2017-05-10T04:25:57.104Z,91.40
2017-05-10T04:28:24.305Z,91.40
2017-05-10T04:30:51.448Z,91.20
2017-05-10T04:33:18.600Z,91.10
2017-05-10T04:35:45.800Z,91.30
2017-05-10T04:38:12.997Z,91.40
2017-05-10T04:40:40.170Z,91.50
2017-05-10T04:43:07.474Z,91.70
2017-05-10T04:45:34.689Z,90.90
2017-05-10T04:48:01.944Z,91.00
2017-05-10T04:50:29.392Z,91.00
2017-05-10T04:52:56.641Z,91.10
2017-05-10T04:55:23.936Z,90.40
2017-05-10T04:57:51.161Z,90.10
2017-05-10T05:00:18.476Z,90.40
2017-05-10T05:02:46.499Z,90.00
2017-05-10T05:05:13.655Z,90.30
2017-05-10T05:07:40.925Z,89.50
2017-05-10T05:10:08.188Z,89.00
2017-05-10T05:12:36.201Z,88.10
2017-05-10T05:15:03.463Z,87.70
2017-05-10T05:17:30.749Z,86.20
2017-05-10T05:19:57.977Z,85.90
2017-05-10T05:22:25.180Z,85.10
2017-05-10T05:24:53.321Z,85.40
2017-05-10T05:27:20.552Z,83.50
2017-05-10T05:29:48.040Z,81.90
2017-05-10T05:32:16.065Z,81.10
2017-05-10T05:34:43.384Z,79.70
2017-05-10T05:37:11.389Z,80.00
2017-05-10T05:39:38.593Z,78.60
2017-05-10T05:42:06.563Z,77.90
2017-05-10T05:44:34.484Z,77.60
2017-05-10T05:47:01.648Z,76.60
2017-05-10T05:49:28.889Z,77.50
2017-05-10T05:51:56.064Z,76.10
2017-05-10T05:54:23.329Z,76.30
2017-05-10T05:56:51.323Z,76.10
2017-05-10T05:59:18.513Z,74.60
2017-05-10T06:01:45.659Z,75.10
2017-05-10T06:04:13.162Z,72.40
2017-05-10T06:06:40.335Z,73.20
2017-05-10T06:09:07.509Z,70.70
2017-05-10T06:11:35.029Z,64.40
2017-05-10T06:14:02.181Z,63.30
2017-05-10T06:16:29.348Z,60.00
2017-05-10T06:18:56.592Z,58.30
2017-05-10T06:21:23.765Z,54.10
2017-05-10T06:23:50.940Z,54.40
2017-05-10T06:26:18.167Z,51.80
2017-05-10T06:28:45.343Z,50.90
2017-05-10T06:31:12.539Z,48.90
2017-05-10T06:33:39.961Z,48.20
2017-05-10T06:36:07.176Z,47.00
2017-05-10T06:38:34.337Z,46.20
2017-05-10T06:41:01.540Z,45.40
2017-05-10T06:43:28.696Z,43.80
2017-05-10T06:45:55.888Z,41.70
2017-05-10T06:48:23.088Z,41.30
2017-05-10T06:50:50.324Z,39.40
2017-05-10T06:53:18.253Z,35.60
2017-05-10T06:55:45.495Z,38.60
2017-05-10T06:58:12.654Z,40.10
2017-05-10T07:00:39.825Z,39.00
2017-05-10T07:03:07.048Z,38.10
2017-05-10T07:05:34.208Z,37.30
2017-05-10T07:08:01.439Z,38.80
2017-05-10T07:10:28.656Z,39.20
2017-05-10T07:12:55.869Z,38.40
2017-05-10T07:15:23.357Z,39.80
2017-05-10T07:17:50.528Z,37.90
2017-05-10T07:20:17.831Z,39.10
2017-05-10T07:22:45.176Z,39.00
2017-05-10T07:25:12.424Z,39.20
2017-05-10T07:27:39.770Z,39.20
2017-05-10T07:30:07.171Z,39.60
2017-05-10T07:32:34.501Z,40.50
2017-05-10T07:35:03.233Z,43.70
2017-05-10T07:37:30.489Z,42.10
2017-05-10T07:39:57.698Z,45.20
2017-05-10T07:42:25.666Z,43.80
2017-05-10T07:44:53.056Z,47.30
2017-05-10T07:47:20.271Z,47.10
2017-05-10T07:49:48.252Z,47.00
2017-05-10T07:52:16.540Z,48.30
2017-05-10T07:54:43.729Z,48.70
2017-05-10T07:57:11.875Z,44.30
2017-05-10T07:59:39.360Z,45.50
2017-05-10T08:02:06.616Z,41.40
2017-05-10T08:04:33.908Z,42.40
2017-05-10T08:07:01.526Z,42.50
2017-05-10T08:09:28.758Z,39.20
2017-05-10T08:11:55.976Z,40.00
2017-05-10T08:14:23.898Z,41.80
2017-05-10T08:16:51.036Z,40.10
2017-05-10T08:19:18.254Z,40.30
2017-05-10T08:21:45.524Z,37.70
2017-05-10T08:24:12.713Z,34.70
2017-05-10T08:26:39.987Z,37.60
2017-05-10T08:29:07.218Z,37.10
2017-05-10T08:31:34.405Z,38.00
2017-05-10T08:34:07.504Z,38.50
2017-05-10T08:36:34.826Z,38.80
2017-05-10T08:39:02.817Z,35.50
2017-05-10T08:41:30.105Z,33.10
2017-05-10T08:43:57.402Z,34.80
2017-05-10T08:46:25.323Z,41.00
2017-05-10T08:48:52.770Z,36.80
2017-05-10T08:51:20.553Z,36.00
2017-05-10T08:53:47.777Z,35.30
2017-05-10T08:56:15.071Z,35.60
2017-05-10T08:58:42.275Z,30.90
2017-05-10T09:01:09.509Z,30.30
2017-05-10T09:03:36.871Z,29.80
2017-05-10T09:06:04.323Z,30.40
2017-05-10T09:08:31.588Z,28.40
2017-05-10T09:10:58.787Z,29.20
2017-05-10T09:13:26.065Z,28.80
2017-05-10T09:15:53.996Z,32.00
2017-05-10T09:18:21.246Z,34.80
2017-05-10T09:20:48.538Z,33.10
2017-05-10T09:23:16.471Z,32.60
2017-05-10T09:25:43.708Z,33.90
2017-05-10T09:28:10.928Z,31.60
2017-05-10T09:30:38.117Z,31.90
2017-05-10T09:33:05.457Z,33.70
2017-05-10T09:35:32.753Z,32.90
2017-05-10T09:38:00.675Z,34.40
2017-05-10T09:40:28.080Z,31.30
2017-05-10T09:42:56.521Z,33.50
2017-05-10T09:45:23.696Z,33.20
2017-05-10T09:47:51.164Z,37.10
2017-05-10T09:50:19.193Z,33.50
2017-05-10T09:52:46.369Z,33.40
2017-05-10T09:55:13.599Z,37.10
2017-05-10T09:57:41.015Z,30.30
2017-05-10T10:00:08.305Z,30.90
2017-05-10T10:02:35.514Z,32.50
2017-05-10T10:05:03.092Z,30.70
2017-05-10T10:07:30.440Z,30.30
2017-05-10T10:09:57.676Z,29.20
2017-05-10T10:12:24.981Z,32.00
2017-05-10T10:14:52.233Z,31.00
2017-05-10T10:17:19.433Z,31.40
2017-05-10T10:19:46.735Z,33.40
2017-05-10T10:22:14.030Z,31.10
2017-05-10T10:24:41.329Z,33.30
2017-05-10T10:27:08.580Z,30.00
2017-05-10T10:29:35.919Z,32.00
2017-05-10T10:32:03.157Z,31.90
2017-05-10T10:34:30.459Z,29.10
2017-05-10T10:36:57.607Z,30.90
2017-05-10T10:39:25.030Z,31.90
2017-05-10T10:41:52.252Z,30.20
2017-05-10T10:44:19.512Z,29.20
2017-05-10T10:46:46.796Z,31.00
2017-05-10T10:49:14.057Z,29.10
2017-05-10T10:51:41.228Z,31.40
2017-05-10T10:54:09.263Z,31.40
2017-05-10T10:56:36.631Z,30.50
2017-05-10T10:59:03.854Z,29.50
2017-05-10T11:01:31.172Z,33.30
2017-05-10T11:03:58.351Z,33.50
2017-05-10T11:06:26.109Z,29.70
2017-05-10T11:08:53.374Z,30.10
2017-05-10T11:11:20.656Z,29.60
2017-05-10T11:13:47.916Z,30.00
2017-05-10T11:16:15.349Z,33.70
2017-05-10T11:18:42.745Z,33.90
2017-05-10T11:21:10.693Z,30.30
2017-05-10T11:23:37.901Z,30.00
2017-05-10T11:26:05.120Z,33.20
2017-05-10T11:28:33.220Z,29.20
2017-05-10T11:31:00.421Z,32.90
2017-05-10T11:33:27.601Z,35.10
2017-05-10T11:35:54.962Z,33.70
2017-05-10T11:38:22.176Z,29.30
2017-05-10T11:40:49.400Z,34.20
2017-05-10T11:43:16.966Z,30.70
2017-05-10T11:45:44.136Z,29.80
2017-05-10T11:48:12.102Z,30.60
2017-05-10T11:50:39.411Z,30.00
2017-05-10T11:53:06.859Z,31.10
2017-05-10T11:55:34.177Z,33.90
2017-05-10T11:58:02.184Z,32.70
2017-05-10T12:00:30.189Z,33.70
2017-05-10T12:02:57.439Z,34.00
2017-05-10T12:05:24.693Z,32.30
2017-05-10T12:07:51.883Z,32.90
2017-05-10T12:10:19.059Z,32.00
2017-05-10T12:12:46.396Z,34.80
2017-05-10T12:15:13.604Z,31.60
2017-05-10T12:17:40.790Z,33.30
2017-05-10T12:20:08.122Z,34.30
2017-05-10T12:22:35.361Z,37.00
2017-05-10T12:25:02.600Z,37.10
2017-05-10T12:27:29.891Z,34.10
2017-05-10T12:29:57.052Z,34.30
2017-05-10T12:32:24.221Z,33.40
2017-05-10T12:34:51.475Z,30.00
2017-05-10T12:37:18.719Z,28.90
2017-05-10T12:39:46.016Z,28.20
2017-05-10T12:42:13.287Z,27.60
2017-05-10T12:44:41.345Z,26.20
2017-05-10T12:47:09.326Z,24.10
2017-05-10T12:49:37.421Z,23.50
2017-05-10T12:52:04.603Z,24.00
2017-05-10T12:54:31.894Z,24.30
2017-05-10T12:56:59.081Z,26.80
2017-05-10T12:59:26.331Z,26.70
2017-05-10T13:01:53.852Z,28.00
2017-05-10T13:04:22.014Z,31.50
2017-05-10T13:06:49.386Z,30.20
2017-05-10T13:09:17.624Z,25.70
2017-05-10T13:11:44.811Z,25.50
2017-05-10T13:14:12.865Z,23.70
2017-05-10T13:16:41.136Z,24.10
2017-05-10T13:19:08.605Z,22.30
2017-05-10T13:21:36.773Z,20.50
2017-05-10T13:24:04.723Z,21.40
2017-05-10T13:26:32.078Z,21.80
2017-05-10T13:28:59.439Z,21.40
2017-05-10T13:31:27.564Z,22.30
2017-05-10T13:33:54.797Z,21.20
2017-05-10T13:36:21.994Z,19.60
2017-05-10T13:38:49.208Z,17.30
2017-05-10T13:41:16.445Z,18.20
2017-05-10T13:43:43.708Z,18.60
2017-05-10T13:46:10.997Z,19.30
2017-05-10T13:48:38.179Z,19.00
2017-05-10T13:51:06.220Z,19.80
2017-05-10T13:53:33.430Z,19.70
2017-05-10T13:56:00.715Z,19.80
2017-05-10T13:58:27.942Z,18.50
2017-05-10T14:00:55.141Z,18.40
2017-05-10T14:03:22.414Z,16.60
2017-05-10T14:05:50.428Z,17.10
2017-05-10T14:08:17.577Z,17.10
2017-05-10T14:10:44.864Z,17.90
2017-05-10T14:13:12.059Z,17.20
2017-05-10T14:15:39.305Z,19.10
2017-05-10T14:18:06.646Z,19.30
2017-05-10T14:20:33.948Z,18.00
2017-05-10T14:23:01.289Z,17.30
2017-05-10T14:25:28.433Z,16.10
2017-05-10T14:27:55.611Z,14.80
2017-05-10T14:30:22.957Z,16.30
2017-05-10T14:32:50.205Z,16.30
2017-05-10T14:35:17.418Z,15.60
2017-05-10T14:37:44.776Z,15.60
2017-05-10T14:40:12.037Z,15.80
2017-05-10T14:42:52.768Z,16.60
2017-05-10T14:45:20.724Z,17.00
2017-05-10T14:47:48.875Z,16.40
2017-05-10T14:50:17.084Z,16.60
2017-05-10T14:52:44.257Z,16.20
2017-05-10T14:55:12.461Z,16.60
2017-05-10T14:57:40.428Z,16.80
2017-05-10T15:00:07.694Z,16.80
2017-05-10T15:02:35.499Z,17.10
2017-05-10T15:05:02.747Z,17.40
2017-05-10T15:07:30.698Z,16.80
2017-05-10T15:09:58.627Z,18.10
2017-05-10T15:12:25.905Z,16.60
2017-05-10T15:14:53.126Z,16.10
2017-05-10T15:17:20.309Z,17.70
2017-05-10T15:19:47.572Z,19.00
2017-05-10T15:22:15.541Z,18.60
2017-05-10T15:24:43.709Z,19.10
2017-05-10T15:27:11.028Z,20.50
2017-05-10T15:29:38.299Z,19.70
2017-05-10T15:32:05.543Z,20.40
2017-05-10T15:34:33.083Z,20.60
2017-05-10T15:37:00.341Z,19.90
2017-05-10T15:39:27.511Z,21.00
2017-05-10T15:41:55.052Z,21.00
2017-05-10T15:44:22.380Z,20.00
2017-05-10T15:46:49.583Z,20.10
2017-05-10T15:49:17.661Z,20.30
2017-05-10T15:51:45.693Z,19.40
2017-05-10T15:54:12.867Z,19.30
2017-05-10T15:56:40.021Z,21.60
2017-05-10T15:59:07.273Z,23.40
2017-05-10T16:01:35.297Z,23.50
2017-05-10T16:04:02.582Z,24.80
2017-05-10T16:06:30.354Z,24.10
2017-05-10T16:08:57.674Z,24.90
2017-05-10T16:11:25.060Z,26.90
2017-05-10T16:13:52.295Z,29.20
2017-05-10T16:16:19.516Z,29.10
2017-05-10T16:18:46.728Z,28.60
2017-05-10T16:21:14.664Z,30.10
2017-05-10T16:23:41.855Z,30.30
2017-05-10T16:26:09.891Z,29.30
2017-05-10T16:28:37.084Z,30.40
2017-05-10T16:31:04.344Z,30.20
2017-05-10T16:33:31.569Z,32.00
2017-05-10T16:35:59.593Z,30.40
2017-05-10T16:38:26.768Z,32.40
2017-05-10T16:40:54.964Z,32.20
2017-05-10T16:43:22.946Z,31.30
2017-05-10T16:45:50.182Z,30.70
2017-05-10T16:48:18.133Z,31.50
2017-05-10T16:50:45.517Z,32.80
2017-05-10T16:53:12.734Z,30.90
2017-05-10T16:55:39.971Z,32.30
2017-05-10T16:58:10.215Z,32.20
2017-05-10T17:00:37.508Z,32.20
2017-05-10T17:03:04.768Z,32.10
2017-05-10T17:05:31.968Z,31.80
2017-05-10T17:07:59.241Z,32.90
2017-05-10T17:10:27.381Z,33.40
2017-05-10T17:12:54.700Z,33.20
2017-05-10T17:15:21.932Z,35.00
2017-05-10T17:17:49.198Z,34.30
2017-05-10T17:20:16.396Z,34.20
2017-05-10T17:22:43.623Z,32.90
2017-05-10T17:25:10.860Z,32.90
2017-05-10T17:27:38.016Z,34.00
2017-05-10T17:30:05.250Z,33.50
2017-05-10T17:32:32.428Z,33.10
2017-05-10T17:34:59.648Z,32.30
2017-05-10T17:37:26.928Z,33.80
2017-05-10T17:39:54.257Z,34.20
2017-05-10T17:42:21.426Z,34.20
2017-05-10T17:44:48.644Z,34.30
2017-05-10T17:47:15.887Z,34.80
2017-05-10T17:49:43.142Z,36.00
2017-05-10T17:52:10.694Z,36.10
2017-05-10T17:54:37.857Z,37.10
2017-05-10T17:57:05.117Z,36.80
2017-05-10T17:59:32.289Z,36.50
2017-05-10T18:01:59.564Z,37.10
2017-05-10T18:04:26.712Z,37.00
2017-05-10T18:06:53.896Z,38.30
2017-05-10T18:09:21.251Z,38.40
2017-05-10T18:11:48.517Z,40.30
2017-05-10T18:14:15.749Z,41.00
2017-05-10T18:16:43.152Z,42.50
2017-05-10T18:19:10.429Z,43.10
2017-05-10T18:21:38.475Z,43.90
2017-05-10T18:24:05.866Z,44.00
2017-05-10T18:26:33.821Z,43.90
2017-05-10T18:29:01.910Z,44.90
2017-05-10T18:31:29.381Z,45.10
2017-05-10T18:33:56.583Z,45.00
2017-05-10T18:36:23.873Z,45.40
2017-05-10T18:38:51.995Z,45.30
2017-05-10T18:41:19.287Z,45.70
2017-05-10T18:43:47.342Z,45.80
2017-05-10T18:46:15.509Z,46.80
2017-05-10T18:48:42.835Z,47.40
2017-05-10T18:51:10.109Z,48.50
2017-05-10T18:53:37.392Z,49.80
2017-05-10T18:56:07.342Z,51.00
2017-05-10T18:58:34.765Z,51.60
2017-05-10T19:01:02.753Z,51.60
2017-05-10T19:03:30.032Z,51.60
2017-05-10T19:05:57.368Z,52.50
2017-05-10T19:08:24.765Z,52.10
2017-05-10T19:10:52.227Z,52.80
2017-05-10T19:13:21.345Z,52.20
2017-05-10T19:15:51.182Z,53.20
2017-05-10T19:18:18.621Z,52.70
2017-05-10T19:20:45.929Z,52.40
2017-05-10T19:23:13.419Z,52.20
2017-05-10T19:25:41.475Z,53.50
2017-05-10T19:28:09.161Z,53.30
2017-05-10T19:30:37.016Z,53.70
2017-05-10T19:33:05.009Z,55.10
2017-05-10T19:35:33.261Z,56.20
2017-05-10T19:38:01.570Z,56.30
2017-05-10T19:40:28.926Z,56.50
2017-05-10T19:42:56.291Z,57.70
2017-05-10T19:45:23.511Z,58.30
2017-05-10T19:47:50.711Z,59.10
2017-05-10T19:50:17.990Z,59.60
2017-05-10T19:52:45.562Z,60.20
2017-05-10T19:55:13.236Z,60.00
2017-05-10T19:57:40.442Z,60.90
2017-05-10T20:00:07.654Z,61.60
2017-05-10T20:02:34.985Z,62.10
2017-05-10T20:05:02.278Z,62.10
2017-05-10T20:07:29.666Z,63.30
2017-05-10T20:09:56.858Z,62.30
2017-05-10T20:12:24.104Z,62.60
2017-05-10T20:14:51.420Z,64.00
2017-05-10T20:17:19.377Z,65.80
2017-05-10T20:19:47.434Z,65.90
2017-05-10T20:22:14.896Z,66.00
2017-05-10T20:24:42.102Z,66.30
2017-05-10T20:27:09.354Z,65.00
2017-05-10T20:29:36.568Z,66.00
2017-05-10T20:32:04.502Z,66.90
2017-05-10T20:34:31.757Z,67.00
2017-05-10T20:36:58.973Z,67.90
2017-05-10T20:39:26.255Z,67.70
2017-05-10T20:41:53.496Z,67.70
2017-05-10T20:44:20.699Z,64.20
2017-05-10T20:46:48.780Z,66.70
2017-05-10T20:49:17.106Z,66.40
2017-05-10T20:51:44.378Z,67.30
2017-05-10T20:54:11.589Z,68.20
2017-05-10T20:56:38.861Z,68.70
2017-05-10T20:59:06.187Z,69.00
2017-05-10T21:01:33.658Z,68.60
2017-05-10T21:04:01.085Z,69.20
2017-05-10T21:06:28.428Z,71.00
2017-05-10T21:08:57.250Z,70.90
2017-05-10T21:11:24.895Z,70.30
2017-05-10T21:13:52.179Z,70.30
2017-05-10T21:16:19.784Z,70.60
2017-05-10T21:18:47.733Z,71.30
2017-05-10T21:21:15.012Z,71.20
2017-05-10T21:23:42.456Z,71.00
2017-05-10T21:26:10.534Z,70.10
2017-05-10T21:28:37.895Z,69.60
2017-05-10T21:31:05.193Z,68.10
2017-05-10T21:33:32.509Z,67.00
2017-05-10T21:35:59.723Z,67.70
2017-05-10T21:38:26.952Z,67.10
2017-05-10T21:40:54.411Z,68.30
2017-05-10T21:43:21.691Z,67.60
2017-05-10T21:46:11.785Z,67.30
2017-05-10T21:48:38.989Z,67.00
2017-05-10T21:51:06.172Z,66.80
2017-05-10T21:53:33.558Z,67.20
2017-05-10T21:56:00.900Z,67.10
2017-05-10T21:58:28.888Z,68.60
2017-05-10T22:00:56.071Z,69.20
2017-05-10T22:03:23.544Z,69.30
2017-05-10T22:05:50.862Z,66.30
2017-05-10T22:08:18.231Z,66.50
2017-05-10T22:10:45.447Z,68.70
2017-05-10T22:13:12.629Z,68.30
2017-05-10T22:15:40.101Z,69.00
2017-05-10T22:18:07.294Z,69.20
2017-05-10T22:20:34.626Z,69.20
2017-05-10T22:23:02.574Z,69.40
2017-05-10T22:25:29.812Z,69.00
2017-05-10T22:27:57.024Z,68.00
2017-05-10T22:30:24.273Z,66.70
2017-05-10T22:32:51.468Z,67.80
2017-05-10T22:35:18.645Z,65.60
2017-05-10T22:37:45.836Z,66.00
2017-05-10T22:40:13.051Z,66.80
2017-05-10T22:42:41.925Z,67.70
2017-05-10T22:45:09.386Z,66.50
2017-05-10T22:47:36.563Z,68.00
2017-05-10T22:50:03.739Z,69.40
2017-05-10T22:52:30.988Z,69.90
2017-05-10T22:54:58.193Z,68.20
2017-05-10T22:57:26.097Z,68.60
2017-05-10T22:59:53.306Z,68.60
2017-05-10T23:02:20.526Z,69.00
2017-05-10T23:04:47.723Z,69.90
2017-05-10T23:07:15.694Z,69.40
2017-05-10T23:09:43.652Z,68.10
2017-05-10T23:12:11.617Z,65.50
2017-05-10T23:14:39.501Z,65.80
2017-05-10T23:17:06.762Z,65.90
2017-05-10T23:19:34.085Z,65.60
2017-05-10T23:22:02.046Z,65.40
2017-05-10T23:24:29.251Z,64.90
2017-05-10T23:26:56.527Z,65.20
2017-05-10T23:29:23.767Z,65.10
2017-05-10T23:31:50.955Z,65.30
2017-05-10T23:34:18.176Z,66.30
2017-05-10T23:36:45.340Z,66.40
2017-05-10T23:39:12.571Z,66.70
2017-05-10T23:41:40.692Z,68.50
2017-05-10T23:44:08.722Z,68.70
2017-05-10T23:46:35.904Z,66.50
2017-05-10T23:49:03.849Z,66.40
2017-05-10T23:51:31.127Z,66.90
2017-05-10T23:53:59.184Z,67.30
2017-05-10T23:56:26.425Z,68.10
2017-05-10T23:58:53.628Z,71.30
